Tambon Sam Nak Thon, Thailand

4:30 PM ICT on August 28, 2015 (GMT +0700)
U-Taphao International | | Change Station
CLOSE
Current Station
Airport
Location: Rayong,
Elevation: 39 ft
Nearby Weather Stations

Elev 39 ft 12.68 °N, 101.00 °E | Updated 30 minutes ago

Mostly Cloudy
Mostly Cloudy
86 °F
Feels Like 92 °F
N
9
Wind Variable Wind from SSW

Today
High -- | Low -- °F
--% Chance of Precip.
Yesterday
High -- | Low -- °F
Precip. -- in
6:05 AM 6:29 PM
Waxing Gibbous, 97% visible
Pressure 29.74 in
Visibility 6.2 miles
Clouds Few 2000 ft
Scattered Clouds 12000 ft
Mostly Cloudy 30000 ft
Heat Index 92 °F
Dew Point 72 °F
Humidity 62%
Rainfall 0.00 in
Snow Depth Not available.
UV 3 out of 12
Pollen Not available.
Air Quality Not available.
Flu Activity Not available.
METAR VTBU 280900Z 20008KT 9999 FEW020CB SCT120 BKN300 30/22 Q1007 A2976
Pressure 29.74 in
Visibility 6.2 miles
Clouds Few 2000 ft
Scattered Clouds 12000 ft
Mostly Cloudy 30000 ft
Heat Index 92 °F
Dew Point 72 °F
Humidity 62%
Rainfall 0.00 in
Snow Depth Not available.
UV 3 out of 12
Pollen Not available.
Air Quality Not available.
Flu Activity Not available.
METAR VTBU 280900Z 20008KT 9999 FEW020CB SCT120 BKN300 30/22 Q1007 A2976

10-Day Weather Forecast

×

Almanac

Astronomy

Aug. 28, 2015 Rise Set
Actual Time
Civil Twilight
Nautical Twilight
Astronomical Twilight
Moon
Length of Visible Light
Length of Day
Tomorrow will be .
, % of the Moon is Illuminated

Today's Extremes

Country Highs Country Lows

Community

WunderPhotos

Upload Photos

1,850,352 photos uploaded!

WunderBlogs® & News

Nearby

Air Quality

  Air Quality AQ Index Pollutant
Not available.

Snow Depth

Station Depth Elevation

Earthquake Activity

City Distance Mag. Time & Date
Minimum magnitude displayed is 2.5.

Coastal Water Temperatures

Place Temperature

Stations

Nearby Weather Stations

Station Location Temp. Windchill Dew Point Humidity Wind Precip. Elev Updated Type